Time;durP1;ratioP1;P1;durP2;ratioP2;P2;SDS_P1;SDS_P2;PMS_P1;PMS_P2;Temp;Humidity;BMP_temperature;BMP_pressure;BME280_temperature;BME280_humidity;BME280_pressure;Samples;Min_cycle;Max_cycle;Signal;HPM_P1;HPM_P2
2022/07/05 00:00:11;;;;;;;7.10;4.37;;;;;;;-145.69;100.00;71593.44;5051682;28;20796;-84
2022/07/05 00:02:38;;;;;;;5.75;3.75;;;;;;;-145.69;100.00;71605.38;5053369;28;20650;-83
2022/07/05 00:05:07;;;;;;;4.63;3.80;;;;;;;-145.69;100.00;71617.31;5053214;28;20207;-83
2022/07/05 00:07:34;;;;;;;4.22;3.28;;;;;;;-145.69;100.00;71635.22;5053069;28;20253;-83
2022/07/05 00:10:01;;;;;;;7.05;3.90;;;;;;;-145.69;100.00;71619.28;5053057;28;20203;-83
2022/07/05 00:12:30;;;;;;;4.75;3.70;;;;;;;-145.69;100.00;71621.28;5052978;28;20207;-84
2022/07/05 00:14:57;;;;;;;11.80;4.27;;;;;;;-145.69;100.00;71613.31;5052863;28;20203;-85
2022/07/05 00:17:25;;;;;;;6.63;4.43;;;;;;;-145.69;100.00;71613.31;5052808;28;20654;-84
2022/07/05 00:19:51;;;;;;;10.97;4.60;;;;;;;-145.69;100.00;71625.25;5052860;28;20231;-84
2022/07/05 00:22:19;;;;;;;6.37;4.73;;;;;;;-145.69;100.00;71619.28;5053099;28;20207;-83
2022/07/05 00:24:46;;;;;;;6.90;4.10;;;;;;;-145.69;100.00;71621.28;5052804;28;20196;-83
2022/07/05 00:27:12;;;;;;;8.70;5.00;;;;;;;-145.69;100.00;71613.31;5052669;28;20204;-84
2022/07/05 00:29:39;;;;;;;10.07;4.60;;;;;;;-145.69;100.00;71621.28;5052638;28;20298;-85
2022/07/05 00:32:06;;;;;;;5.57;4.23;;;;;;;-145.69;100.00;71629.25;5053051;28;20203;-83
2022/07/05 00:34:34;;;;;;;5.57;4.33;;;;;;;-145.69;100.00;71637.19;5052922;28;20206;-83
2022/07/05 00:37:00;;;;;;;11.70;4.67;;;;;;;-145.69;100.00;71637.19;5055254;28;20202;-83
2022/07/05 00:39:27;;;;;;;7.57;4.90;;;;;;;-145.69;100.00;71639.19;5053572;28;20227;-84
2022/07/05 00:41:53;;;;;;;6.80;4.87;;;;;;;-145.69;100.00;71643.19;5052836;28;20329;-84
2022/07/05 00:44:29;;;;;;;9.67;4.83;;;;;;;-145.69;100.00;71643.19;5052751;28;20215;-84
2022/07/05 00:46:56;;;;;;;10.87;4.70;;;;;;;-145.69;100.00;71643.19;5052798;28;20199;-84
2022/07/05 00:49:22;;;;;;;11.67;5.30;;;;;;;-145.69;100.00;71633.22;5052584;28;20269;-84
2022/07/05 00:51:51;;;;;;;7.37;5.00;;;;;;;-145.69;100.00;71633.22;5052626;28;20196;-84
2022/07/05 00:54:18;;;;;;;8.07;4.80;;;;;;;-145.69;100.00;71637.19;5052472;28;20222;-83
2022/07/05 00:56:45;;;;;;;10.30;5.03;;;;;;;-145.69;100.00;71643.19;5052356;28;20547;-83
2022/07/05 00:59:11;;;;;;;9.87;4.73;;;;;;;-145.69;100.00;71637.19;5052521;28;20231;-83
2022/07/05 01:01:38;;;;;;;10.93;4.67;;;;;;;-145.69;100.00;71633.22;5052507;28;20206;-83
2022/07/05 01:04:06;;;;;;;6.77;4.37;;;;;;;-145.69;100.00;71637.19;5056110;28;20590;-84
2022/07/05 01:06:33;;;;;;;7.97;5.67;;;;;;;-145.69;100.00;71645.16;5056580;28;20200;-84
2022/07/05 01:09:02;;;;;;;5.97;4.20;;;;;;;-145.69;100.00;71645.16;5056166;28;20245;-83
2022/07/05 01:11:28;;;;;;;10.97;4.53;;;;;;;-145.69;100.00;71637.19;5056131;28;20210;-84
2022/07/05 01:13:55;;;;;;;6.67;4.20;;;;;;;-145.69;100.00;71647.16;5056041;28;20277;-83
2022/07/05 01:16:22;;;;;;;8.50;4.47;;;;;;;-145.69;100.00;71661.09;5056258;28;20195;-85
2022/07/05 01:18:49;;;;;;;10.68;5.05;;;;;;;-145.69;100.00;71659.09;5055985;28;20447;-84
2022/07/05 01:21:19;;;;;;;5.33;4.10;;;;;;;-145.69;100.00;71671.03;5056084;28;20206;-84
2022/07/05 01:23:48;;;;;;;5.60;3.60;;;;;;;-145.69;100.00;71679.00;5055768;28;20199;-84
2022/07/05 01:26:15;;;;;;;11.37;4.37;;;;;;;-145.69;100.00;71675.00;5056059;28;20203;-84
2022/07/05 01:28:41;;;;;;;6.63;4.33;;;;;;;-145.69;100.00;71671.03;5056151;28;20322;-84
2022/07/05 01:31:08;;;;;;;6.33;4.80;;;;;;;-145.69;100.00;71667.06;5056001;28;20286;-84
2022/07/05 01:33:34;;;;;;;10.03;4.87;;;;;;;-145.69;100.00;71675.00;5056001;28;20204;-84
2022/07/05 01:36:01;;;;;;;7.30;4.23;;;;;;;-145.69;100.00;71671.03;5055833;28;20206;-84
2022/07/05 01:38:28;;;;;;;5.37;4.13;;;;;;;-145.69;100.00;71675.00;5057189;28;20214;-84
2022/07/05 01:40:56;;;;;;;7.73;4.17;;;;;;;-145.69;100.00;71677.00;5074839;28;20194;-84
2022/07/05 01:43:24;;;;;;;6.93;4.40;;;;;;;-145.69;100.00;71684.97;5075809;28;20203;-84
2022/07/05 01:45:50;;;;;;;6.33;3.83;;;;;;;-145.69;100.00;71686.97;5075858;28;20198;-84
2022/07/05 01:48:19;;;;;;;7.60;4.47;;;;;;;-145.69;100.00;71688.94;5075436;28;20227;-85
2022/07/05 01:50:49;;;;;;;9.37;4.87;;;;;;;-145.69;100.00;71694.91;5075428;28;20203;-85
2022/07/05 01:53:20;;;;;;;5.97;3.70;;;;;;;-145.69;100.00;71704.88;5076003;28;20206;-86
2022/07/05 01:55:47;;;;;;;4.90;3.70;;;;;;;-145.69;100.00;71714.81;5075645;28;20207;-84
2022/07/05 01:58:15;;;;;;;8.07;4.03;;;;;;;-145.69;100.00;71714.81;5075654;28;20206;-84
2022/07/05 02:00:43;;;;;;;4.63;3.80;;;;;;;-145.69;100.00;71724.75;5075174;28;20233;-84
2022/07/05 02:03:11;;;;;;;4.83;3.80;;;;;;;-145.69;100.00;71726.75;5075263;28;20202;-82
2022/07/05 02:05:38;;;;;;;7.17;3.97;;;;;;;-145.69;100.00;71720.78;5075189;28;20673;-84
2022/07/05 02:08:05;;;;;;;10.20;4.07;;;;;;;-145.69;100.00;71714.81;5075399;28;20226;-85
2022/07/05 02:10:31;;;;;;;8.07;4.13;;;;;;;-145.69;100.00;71716.81;5075333;28;20203;-84
2022/07/05 02:12:58;;;;;;;8.27;4.20;;;;;;;-145.69;100.00;71708.84;5075985;28;20226;-84
2022/07/05 02:15:26;;;;;;;10.03;4.20;;;;;;;-145.69;100.00;71724.75;5074012;28;20202;-84
2022/07/05 02:17:52;;;;;;;7.17;3.33;;;;;;;-145.69;100.00;71728.75;5074968;28;20199;-83
2022/07/05 02:20:19;;;;;;;5.50;4.03;;;;;;;-145.69;100.00;71736.72;5075066;28;20235;-83
2022/07/05 02:22:45;;;;;;;7.27;3.73;;;;;;;-145.69;100.00;71744.66;5074838;28;20198;-84
2022/07/05 02:25:12;;;;;;;5.80;4.00;;;;;;;-145.69;100.00;71756.59;5075025;28;20256;-85
2022/07/05 02:27:40;;;;;;;5.30;4.30;;;;;;;-145.69;100.00;71764.56;5074831;28;20210;-84
2022/07/05 02:30:08;;;;;;;6.27;4.03;;;;;;;-145.69;100.00;71760.59;5074804;28;20600;-84
2022/07/05 02:32:35;;;;;;;7.27;4.07;;;;;;;-145.69;100.00;71772.53;5074681;28;20199;-85
2022/07/05 02:35:03;;;;;;;9.40;4.13;;;;;;;-145.69;100.00;71768.53;5074673;28;20710;-85
2022/07/05 02:37:29;;;;;;;11.17;4.03;;;;;;;-145.69;100.00;71780.50;5075117;28;20199;-84
2022/07/05 02:39:56;;;;;;;8.17;4.00;;;;;;;-145.69;100.00;71772.53;5073576;28;20252;-83
2022/07/05 02:42:22;;;;;;;8.57;4.17;;;;;;;-145.69;100.00;71768.53;5056665;28;20200;-83
2022/07/05 02:44:49;;;;;;;6.37;3.97;;;;;;;-145.69;100.00;71776.50;5054514;28;20204;-82
2022/07/05 02:47:15;;;;;;;7.97;3.97;;;;;;;-145.69;100.00;71776.50;5054358;28;20531;-82
2022/07/05 02:49:43;;;;;;;7.53;3.70;;;;;;;-145.69;100.00;71784.47;5054250;28;20598;-83
2022/07/05 02:52:10;;;;;;;8.30;4.20;;;;;;;-145.69;100.00;71782.47;5054398;28;20199;-83
2022/07/05 02:54:42;;;;;;;5.83;4.07;;;;;;;-145.69;100.00;71770.53;5054270;28;20302;-84
2022/07/05 02:57:08;;;;;;;8.17;4.40;;;;;;;-145.69;100.00;71764.56;5054363;28;20242;-84
2022/07/05 02:59:35;;;;;;;6.77;4.07;;;;;;;-145.69;100.00;71756.59;5053936;28;20717;-83
2022/07/05 03:02:01;;;;;;;6.00;3.70;;;;;;;-145.69;100.00;71748.66;5054222;28;20204;-82
2022/07/05 03:04:28;;;;;;;10.57;4.20;;;;;;;-145.69;100.00;71748.66;5054255;28;20203;-84
2022/07/05 03:06:56;;;;;;;7.60;3.90;;;;;;;-145.69;100.00;71744.66;5054082;28;20202;-84
2022/07/05 03:09:22;;;;;;;6.87;3.70;;;;;;;-145.69;100.00;71744.66;5053978;28;20242;-84
2022/07/05 03:11:48;;;;;;;4.77;3.37;;;;;;;-145.69;100.00;71746.66;5053826;28;20203;-85
2022/07/05 03:14:15;;;;;;;8.93;4.00;;;;;;;-145.69;100.00;71734.72;5053800;28;20655;-84
2022/07/05 03:16:44;;;;;;;5.70;3.60;;;;;;;-145.69;100.00;71726.75;5054155;28;20207;-84
2022/07/05 03:19:10;;;;;;;15.23;4.10;;;;;;;-145.69;100.00;71720.78;5053873;28;20207;-84
2022/07/05 03:21:37;;;;;;;7.23;3.37;;;;;;;-145.69;100.00;71720.78;5053854;28;20282;-84
2022/07/05 03:24:08;;;;;;;5.63;3.23;;;;;;;-145.69;100.00;71718.78;5053827;28;20195;-85
2022/07/05 03:26:34;;;;;;;5.70;3.30;;;;;;;-145.69;100.00;71712.81;5053190;28;20286;-83
2022/07/05 03:29:00;;;;;;;4.03;3.30;;;;;;;-145.69;100.00;71704.88;5053972;28;20202;-84
2022/07/05 03:31:27;;;;;;;5.80;3.70;;;;;;;-145.69;100.00;71704.88;5053857;28;20207;-84
2022/07/05 03:33:53;;;;;;;9.37;3.30;;;;;;;-145.69;100.00;71708.84;5053382;28;20738;-84
2022/07/05 03:36:20;;;;;;;12.80;2.93;;;;;;;-145.69;100.00;71700.88;5053581;28;20210;-85
2022/07/05 03:38:48;;;;;;;5.73;3.20;;;;;;;-145.69;100.00;71700.88;5053406;28;20215;-85
2022/07/05 03:41:16;;;;;;;5.53;3.37;;;;;;;-145.69;100.00;71698.91;5053249;28;20727;-84
2022/07/05 03:43:42;;;;;;;8.30;2.87;;;;;;;-145.69;100.00;71692.94;5053607;28;20199;-83
2022/07/05 03:46:09;;;;;;;5.70;2.97;;;;;;;-145.69;100.00;71696.91;5053286;28;20203;-84
2022/07/05 03:48:36;;;;;;;8.23;3.10;;;;;;;-145.69;100.00;71696.91;5053286;28;20231;-84
2022/07/05 03:51:03;;;;;;;3.30;2.63;;;;;;;-145.69;100.00;71700.88;5053285;28;20207;-83
2022/07/05 03:53:29;;;;;;;8.73;2.73;;;;;;;-145.69;100.00;71702.88;5053170;28;20206;-84
2022/07/05 03:55:56;;;;;;;3.60;2.60;;;;;;;-145.69;100.00;71704.88;5053314;28;20203;-85
2022/07/05 03:58:24;;;;;;;4.13;2.47;;;;;;;-145.69;100.00;71708.84;5053407;28;20203;-83
2022/07/05 04:00:51;;;;;;;3.73;2.33;;;;;;;-145.69;100.00;71716.81;5053201;28;20227;-84
2022/07/05 04:03:17;;;;;;;3.47;2.10;;;;;;;-145.69;100.00;71716.81;5053205;28;20777;-85
2022/07/05 04:05:44;;;;;;;2.70;2.33;;;;;;;-145.69;100.00;71716.81;5053086;28;20242;-84
2022/07/05 04:08:10;;;;;;;3.90;2.40;;;;;;;-145.69;100.00;71716.81;5052911;28;20230;-84
2022/07/05 04:10:37;;;;;;;4.20;2.33;;;;;;;-145.69;100.00;71708.84;5053015;28;20204;-85
2022/07/05 04:13:03;;;;;;;7.47;2.40;;;;;;;-145.69;100.00;71710.84;5053219;28;20222;-84
2022/07/05 04:15:31;;;;;;;4.73;2.33;;;;;;;-145.69;100.00;71708.84;5054850;28;20199;-86
2022/07/05 04:17:57;;;;;;;4.83;2.37;;;;;;;-145.69;100.00;71708.84;5053166;28;20210;-85
2022/07/05 04:20:25;;;;;;;3.23;2.47;;;;;;;-145.69;100.00;71700.88;5052866;28;20231;-85
2022/07/05 04:22:52;;;;;;;6.13;2.40;;;;;;;-145.69;100.00;71696.91;5053077;28;20199;-85
2022/07/05 04:25:19;;;;;;;7.20;3.47;;;;;;;-145.69;100.00;71686.97;5053038;28;20597;-85
2022/07/05 04:27:47;;;;;;;9.53;2.27;;;;;;;-145.69;100.00;71677.00;5053355;28;20210;-84
2022/07/05 04:30:15;;;;;;;4.07;2.20;;;;;;;-145.69;100.00;71669.03;5052851;28;20681;-84
2022/07/05 04:32:52;;;;;;;8.65;2.55;;;;;;;-145.69;100.00;71659.09;5052783;28;20203;-84
2022/07/05 04:35:26;;;;;;;3.90;2.10;;;;;;;-145.69;100.00;71657.09;5052737;28;20199;-83
2022/07/05 04:37:54;;;;;;;4.10;1.93;;;;;;;-145.69;100.00;71663.06;5054646;28;20203;-84
2022/07/05 04:40:20;;;;;;;3.73;2.00;;;;;;;-145.69;100.00;71659.09;5057203;28;20223;-84
2022/07/05 04:42:47;;;;;;;8.27;2.30;;;;;;;-145.69;100.00;71657.09;5056754;28;20394;-85
2022/07/05 04:45:13;;;;;;;5.03;2.63;;;;;;;-145.69;100.00;71649.16;5056925;28;20203;-84
2022/07/05 04:47:40;;;;;;;9.13;2.35;;;;;;;-145.69;100.00;71653.13;5058802;28;20688;-85
2022/07/05 04:50:09;;;;;;;9.43;2.03;;;;;;;-145.69;100.00;71653.13;5056908;28;20291;-84
2022/07/05 04:52:35;;;;;;;5.53;2.27;;;;;;;-145.69;100.00;71657.09;5056700;28;20665;-83
2022/07/05 04:55:02;;;;;;;4.93;2.10;;;;;;;-145.69;100.00;71649.16;5056952;28;20210;-84
2022/07/05 04:57:28;;;;;;;6.83;2.20;;;;;;;-145.69;100.00;71647.16;5056634;28;20282;-83
2022/07/05 04:59:57;;;;;;;4.18;2.50;;;;;;;-145.69;100.00;71643.19;5056483;28;20270;-83
2022/07/05 05:02:24;;;;;;;4.68;2.40;;;;;;;-145.69;100.00;71647.16;5056563;28;20208;-84
2022/07/05 05:04:50;;;;;;;5.20;2.50;;;;;;;-145.69;100.00;71641.19;5056644;28;20199;-84
2022/07/05 05:07:20;;;;;;;5.90;2.40;;;;;;;-145.69;100.00;71637.19;5056401;28;20199;-85
2022/07/05 05:09:46;;;;;;;4.17;2.10;;;;;;;-145.69;100.00;71637.19;5056472;28;20286;-84
2022/07/05 05:12:13;;;;;;;5.40;2.58;;;;;;;-145.69;100.00;71631.25;5056306;28;20246;-84
2022/07/05 05:14:39;;;;;;;3.50;2.20;;;;;;;-145.69;100.00;71625.25;5055925;28;20203;-83
2022/07/05 05:17:06;;;;;;;4.20;2.45;;;;;;;-145.69;100.00;71619.28;5056015;28;20199;-84
2022/07/05 05:19:32;;;;;;;7.20;2.20;;;;;;;-145.69;100.00;71613.31;5056121;28;20673;-83
2022/07/05 05:21:59;;;;;;;5.35;2.47;;;;;;;-145.69;100.00;71611.34;5056134;28;20234;-83
2022/07/05 05:24:29;;;;;;;3.88;2.38;;;;;;;-145.69;100.00;71605.38;5056016;28;20646;-84
2022/07/05 05:26:55;;;;;;;3.97;2.45;;;;;;;-145.69;100.00;71597.41;5055937;28;20654;-84
2022/07/05 05:29:22;;;;;;;4.63;2.20;;;;;;;-145.69;100.00;71587.47;5056061;28;20557;-82
2022/07/05 05:31:48;;;;;;;3.53;2.50;;;;;;;-145.69;100.00;71573.53;5055950;28;20207;-83
2022/07/05 05:34:15;;;;;;;4.13;2.70;;;;;;;-145.69;100.00;71557.59;5055976;28;20211;-84
2022/07/05 05:36:41;;;;;;;4.22;2.38;;;;;;;-145.69;100.00;71543.69;5055997;28;20199;-84
2022/07/05 05:39:08;;;;;;;3.63;2.35;;;;;;;-145.69;100.00;71533.72;5055920;28;20223;-83
2022/07/05 05:41:36;;;;;;;2.10;1.90;;;;;;;-145.69;100.00;71517.81;5055741;28;20235;-83
2022/07/05 05:44:03;;;;;;;4.97;2.35;;;;;;;-145.69;100.00;71466.06;5055225;28;20265;-84
2022/07/05 05:46:29;;;;;;;5.10;2.42;;;;;;;-145.69;100.00;71360.59;5055848;28;20204;-84
2022/07/05 05:48:56;;;;;;;3.00;1.75;;;;;;;-145.69;100.00;71239.22;5055034;28;20231;-85
2022/07/05 05:51:22;;;;;;;3.22;1.50;;;;;;;-145.69;100.00;71123.81;5055778;28;20298;-82
2022/07/05 05:53:49;;;;;;;4.13;1.13;;;;;;;-145.69;100.00;71038.25;5055526;28;20208;-82
2022/07/05 05:56:15;;;;;;;3.40;0.95;;;;;;;-145.69;100.00;70936.78;5055454;28;20200;-85
2022/07/05 05:58:43;;;;;;;1.38;0.90;;;;;;;-145.69;99.31;70841.28;5055355;28;20210;-82
2022/07/05 06:01:10;;;;;;;1.77;0.70;;;;;;;-145.69;94.36;70783.59;5055176;28;20227;-82
2022/07/05 06:03:36;;;;;;;2.53;0.82;;;;;;;-145.69;88.89;70737.84;5055445;28;20204;-82
2022/07/05 06:06:03;;;;;;;2.08;0.75;;;;;;;-145.69;83.26;70680.13;5055403;28;20202;-82
2022/07/05 06:08:29;;;;;;;1.77;0.80;;;;;;;-145.69;75.15;70654.28;5055038;28;20196;-83
2022/07/05 06:10:56;;;;;;;3.03;0.80;;;;;;;-145.69;67.71;70652.28;5055088;28;20210;-82
2022/07/05 06:13:22;;;;;;;3.95;0.80;;;;;;;-145.69;62.96;70696.06;5055085;28;20203;-82
2022/07/05 06:15:50;;;;;;;0.55;0.50;;;;;;;-145.69;57.75;70698.03;5055249;28;20226;-82
2022/07/05 06:18:16;;;;;;;0.50;0.50;;;;;;;-145.69;65.43;70694.06;5055172;28;20209;-83
2022/07/05 06:20:43;;;;;;;1.02;0.60;;;;;;;-145.69;61.96;70682.13;5055104;28;20219;-82
2022/07/05 06:23:09;;;;;;;2.83;0.80;;;;;;;-145.69;62.32;70668.19;5054831;28;20203;-82
2022/07/05 06:25:37;;;;;;;2.25;0.70;;;;;;;-145.69;57.49;70618.47;5054924;28;20213;-81
2022/07/05 06:28:05;;;;;;;0.95;0.57;;;;;;;-145.69;59.28;70598.56;5054764;28;20206;-82
2022/07/05 06:30:33;;;;;;;2.15;0.60;;;;;;;-145.69;54.86;70592.59;5054762;28;20209;-83
2022/07/05 06:33:01;;;;;;;1.83;0.60;;;;;;;-145.69;54.33;70660.25;5055203;28;20207;-83
2022/07/05 06:35:28;;;;;;;1.80;0.65;;;;;;;-145.69;54.56;70704.00;5054697;28;20730;-83
2022/07/05 06:37:58;;;;;;;1.48;0.60;;;;;;;-145.69;53.80;70686.09;5054851;28;20560;-83
2022/07/05 06:40:26;;;;;;;1.40;0.60;;;;;;;-145.69;54.54;70656.25;5054405;28;20249;-82
2022/07/05 06:42:53;;;;;;;1.33;0.50;;;;;;;-145.69;52.09;70618.47;5054447;28;20443;-82
2022/07/05 06:45:20;;;;;;;2.78;0.80;;;;;;;-145.69;53.26;70670.19;5054728;28;20207;-83
2022/07/05 06:47:55;;;;;;;0.98;0.73;;;;;;;-145.69;49.17;70598.56;5054839;28;20210;-83
2022/07/05 06:50:23;;;;;;;0.95;0.60;;;;;;;-145.69;52.38;70642.34;5056833;28;20227;-82
2022/07/05 06:52:49;;;;;;;1.27;0.70;;;;;;;-145.69;56.42;70654.28;5054288;28;20657;-82
2022/07/05 06:55:19;;;;;;;1.70;0.60;;;;;;;-145.69;62.43;70698.03;5054535;28;20206;-83
2022/07/05 06:57:45;;;;;;;1.00;0.60;;;;;;;-145.69;60.22;70682.13;5054580;28;20214;-83
2022/07/05 07:00:13;;;;;;;2.20;0.80;;;;;;;-145.69;56.57;70733.84;5053142;28;20289;-83
2022/07/05 07:02:39;;;;;;;2.30;0.88;;;;;;;-145.69;62.61;70779.63;5054200;28;20204;-82
2022/07/05 07:05:07;;;;;;;6.32;0.80;;;;;;;-145.69;65.17;70807.47;5054145;28;20698;-83
2022/07/05 07:10:19;;;;;;;4.68;0.80;;;;;;;-145.69;57.92;70877.09;5054158;28;20558;-84
2022/07/05 07:12:46;;;;;;;4.00;1.00;;;;;;;-145.69;68.77;70889.03;5053891;28;20574;-83
2022/07/05 07:15:12;;;;;;;1.48;0.70;;;;;;;-145.69;65.73;70891.03;5054240;28;20199;-84
2022/07/05 07:17:39;;;;;;;3.25;0.90;;;;;;;-145.69;62.55;70897.00;5053931;28;20214;-84
2022/07/05 07:20:06;;;;;;;2.25;0.90;;;;;;;-145.69;63.68;70908.94;5053789;28;20290;-84
2022/07/05 07:22:33;;;;;;;1.23;0.93;;;;;;;-145.69;64.54;70891.03;5053997;28;20234;-84
2022/07/05 07:25:00;;;;;;;2.25;0.90;;;;;;;-145.69;61.01;70885.06;5053857;28;20207;-84
2022/07/05 07:27:30;;;;;;;3.75;0.93;;;;;;;-145.69;64.48;70869.16;5053837;28;20214;-85
2022/07/05 07:29:56;;;;;;;2.33;1.00;;;;;;;-145.69;60.68;70887.06;5054099;28;20249;-84
2022/07/05 07:32:26;;;;;;;4.38;1.30;;;;;;;-145.69;63.20;70893.03;5053537;28;20203;-84
2022/07/05 07:34:52;;;;;;;4.43;0.90;;;;;;;-145.69;63.84;70879.09;5053886;28;20208;-83
2022/07/05 07:37:19;;;;;;;2.30;0.95;;;;;;;-145.69;62.50;70857.22;5053736;28;20211;-85
2022/07/05 07:39:45;;;;;;;2.80;0.85;;;;;;;-145.69;58.85;70833.34;5053625;28;20296;-83
2022/07/05 07:42:14;;;;;;;3.83;1.00;;;;;;;-145.69;61.32;70835.31;5053465;28;20227;-84
2022/07/05 07:44:41;;;;;;;2.83;0.90;;;;;;;-145.69;56.77;70845.28;5053530;28;20211;-83
2022/07/05 07:47:07;;;;;;;3.20;1.00;;;;;;;-145.69;60.02;70811.44;5052275;28;20486;-84
2022/07/05 07:49:36;;;;;;;2.30;0.98;;;;;;;-145.69;60.92;70793.53;5053261;28;20227;-84
2022/07/05 07:52:03;;;;;;;1.95;0.80;;;;;;;-145.69;57.84;70809.47;5053455;28;20200;-86
2022/07/05 07:54:29;;;;;;;3.55;1.10;;;;;;;-145.69;57.91;70841.28;5053229;28;20211;-84
2022/07/05 07:56:56;;;;;;;2.00;1.00;;;;;;;-145.69;57.80;70831.34;5053254;28;20203;-84
2022/07/05 07:59:23;;;;;;;2.10;0.77;;;;;;;-145.69;62.46;70811.44;5053027;28;20729;-85
2022/07/05 08:01:52;;;;;;;3.58;1.23;;;;;;;-145.69;62.89;70791.56;5053045;28;20581;-85
2022/07/05 08:04:19;;;;;;;3.60;0.85;;;;;;;-145.69;62.28;70795.53;5053281;28;20210;-85
2022/07/05 08:06:48;;;;;;;3.63;1.25;;;;;;;-145.69;54.39;70823.38;5053186;28;20226;-85
2022/07/05 08:09:15;;;;;;;4.97;0.95;;;;;;;-145.69;62.96;70831.34;5053192;28;20261;-85
2022/07/05 08:11:49;;;;;;;2.17;0.88;;;;;;;-145.69;53.28;70821.41;5052943;28;20203;-84
2022/07/05 08:14:16;;;;;;;2.60;0.85;;;;;;;-145.69;52.16;70819.41;5052860;28;20199;-84
2022/07/05 08:16:45;;;;;;;4.10;0.82;;;;;;;-145.69;50.81;70823.38;5052808;28;20195;-84
2022/07/05 08:22:01;;;;;;;1.90;0.85;;;;;;;-145.69;52.69;70849.25;5052876;28;20229;-83
2022/07/05 08:24:28;;;;;;;2.05;0.73;;;;;;;-145.69;50.09;70843.28;5053259;28;20290;-82
2022/07/05 08:26:57;;;;;;;5.18;1.17;;;;;;;-145.69;51.20;70829.34;5053051;28;20272;-84
2022/07/05 08:29:24;;;;;;;3.80;1.08;;;;;;;-145.69;51.02;70821.41;5053288;28;20207;-86
2022/07/05 08:31:55;;;;;;;1.38;0.73;;;;;;;-145.69;49.23;70813.44;5052975;28;20196;-86
2022/07/05 08:34:21;;;;;;;6.32;1.02;;;;;;;-145.69;50.39;70813.44;5053213;28;20199;-84
2022/07/05 08:36:48;;;;;;;2.10;0.88;;;;;;;-145.69;49.98;70825.38;5052847;28;20227;-83
2022/07/05 08:39:15;;;;;;;5.25;0.90;;;;;;;-145.69;52.73;70825.38;5052782;28;20200;-82
2022/07/05 08:41:48;;;;;;;2.20;1.00;;;;;;;-145.69;50.01;70817.41;5052757;28;20694;-83
2022/07/05 08:44:18;;;;;;;2.58;0.80;;;;;;;-145.69;50.24;70785.59;5055054;28;20217;-84
2022/07/05 08:46:47;;;;;;;6.30;1.27;;;;;;;-145.69;48.77;70785.59;5052708;28;20602;-84
2022/07/05 08:49:15;;;;;;;3.00;0.77;;;;;;;-145.69;49.59;70765.69;5052658;28;20231;-81
2022/07/05 08:51:43;;;;;;;2.58;0.90;;;;;;;-145.69;45.77;70765.69;5052922;28;20294;-80
2022/07/05 08:54:13;;;;;;;3.42;0.70;;;;;;;-145.69;44.09;70745.78;5052943;28;20227;-79
2022/07/05 08:56:42;;;;;;;0.88;0.63;;;;;;;-145.69;48.31;70737.84;5053445;28;20204;-84
2022/07/05 08:59:08;;;;;;;7.20;1.00;;;;;;;-145.69;46.05;70743.81;5053034;28;20409;-83
2022/07/05 09:01:36;;;;;;;2.65;0.98;;;;;;;-145.69;49.42;70745.78;5053312;28;20223;-84
2022/07/05 09:04:05;;;;;;;5.55;0.88;;;;;;;-145.69;48.71;70737.84;5052773;28;20654;-81
2022/07/05 09:06:36;;;;;;;3.28;1.00;;;;;;;-145.69;50.22;70723.91;5053079;28;20202;-84
2022/07/05 09:09:04;;;;;;;3.75;1.10;;;;;;;-145.69;47.40;70731.88;5052983;28;20202;-85
2022/07/05 09:11:36;;;;;;;2.60;0.90;;;;;;;-145.69;48.21;70725.91;5052840;28;20218;-84
2022/07/05 09:14:04;;;;;;;3.95;0.80;;;;;;;-145.69;47.73;70755.75;5052556;28;20841;-84
2022/07/05 09:16:31;;;;;;;3.72;1.13;;;;;;;-145.69;47.04;70729.88;5052981;28;20654;-86
2022/07/05 09:19:05;;;;;;;3.78;0.73;;;;;;;-145.69;47.61;70713.97;5053289;28;20556;-86
2022/07/05 09:21:33;;;;;;;0.70;0.70;;;;;;;-145.69;48.41;70706.00;5053293;28;20675;-84
2022/07/05 09:24:04;;;;;;;3.15;1.10;;;;;;;-145.69;49.01;70698.03;5054738;28;20218;-86
2022/07/05 09:26:35;;;;;;;4.07;1.10;;;;;;;-145.69;45.77;70717.94;5056231;28;20204;-85
2022/07/05 09:29:03;;;;;;;1.27;0.80;;;;;;;-145.69;45.24;70694.06;5056117;28;20204;-82
2022/07/05 09:31:31;;;;;;;2.95;0.77;;;;;;;-145.69;42.51;70713.97;5056594;28;20210;-85
2022/07/05 09:34:05;;;;;;;1.80;0.80;;;;;;;-145.69;45.08;70706.00;5056863;28;20218;-84
2022/07/05 09:36:54;;;;;;;1.98;0.57;;;;;;;-145.69;45.34;70709.97;5056089;28;20198;-85
2022/07/05 09:39:38;;;;;;;2.30;0.80;;;;;;;-145.69;45.00;70682.13;5056044;28;20210;-86
2022/07/05 09:42:19;;;;;;;1.50;0.60;;;;;;;-145.69;44.01;70692.06;5055270;28;20464;-85
2022/07/05 09:44:47;;;;;;;3.72;0.88;;;;;;;-145.69;42.78;70700.03;5056806;28;20226;-83
2022/07/05 09:47:15;;;;;;;1.17;0.70;;;;;;;-145.69;43.71;70696.06;5056731;28;20662;-79
2022/07/05 09:49:47;;;;;;;1.45;0.90;;;;;;;-145.69;43.26;70696.06;5056549;28;20235;-83
2022/07/05 09:52:29;;;;;;;1.30;0.73;;;;;;;-145.69;43.28;70702.03;5056277;28;20238;-83
2022/07/05 09:55:04;;;;;;;1.10;0.75;;;;;;;-145.69;44.39;70690.09;5056023;28;20282;-86
2022/07/05 09:57:30;;;;;;;7.97;0.80;;;;;;;-145.69;46.10;70668.19;5055773;28;20207;-86
2022/07/05 10:00:01;;;;;;;1.50;0.65;;;;;;;-145.69;43.86;70672.19;5055721;28;20231;-86
2022/07/05 10:02:38;;;;;;;1.60;0.70;;;;;;;-145.69;41.67;70638.34;5056182;28;20271;-85
2022/07/05 10:05:12;;;;;;;4.53;0.90;;;;;;;-145.69;47.63;70586.63;5055580;28;20203;-85
2022/07/05 10:07:44;;;;;;;1.30;0.60;;;;;;;-145.69;46.49;70574.69;5055691;28;20231;-86
2022/07/05 10:10:12;;;;;;;0.70;0.60;;;;;;;-145.69;44.72;70540.88;5055428;28;20207;-85
2022/07/05 10:12:40;;;;;;;1.23;0.70;;;;;;;-145.69;50.49;70451.34;5055254;28;20204;-85
2022/07/05 10:15:11;;;;;;;1.55;0.68;;;;;;;-145.69;44.07;70427.47;5055419;28;20658;-86
2022/07/05 10:17:41;;;;;;;1.70;0.70;;;;;;;-145.69;43.24;70453.34;5054683;28;20938;-87
2022/07/05 10:20:13;;;;;;;3.65;0.60;;;;;;;-145.69;44.11;70451.34;5080377;28;20289;-87
2022/07/05 10:22:42;;;;;;;4.03;0.70;;;;;;;-145.69;39.87;70461.31;5096242;28;20269;-80
2022/07/05 10:25:08;;;;;;;2.53;0.80;;;;;;;-145.69;42.03;70505.06;5096258;28;20676;-87
2022/07/05 10:27:37;;;;;;;2.25;0.70;;;;;;;-145.69;41.90;70542.88;5096749;28;20204;-82
2022/07/05 10:30:05;;;;;;;4.45;0.93;;;;;;;-145.69;41.39;70594.59;5096059;28;20285;-86
2022/07/05 10:32:35;;;;;;;1.83;0.70;;;;;;;-145.69;44.64;70598.56;5096691;28;20202;-85
2022/07/05 10:35:02;;;;;;;1.33;0.60;;;;;;;-145.69;42.20;70526.94;5095714;28;20198;-86
2022/07/05 10:37:31;;;;;;;2.78;0.80;;;;;;;-145.69;40.96;70489.16;5091268;28;20320;-86
2022/07/05 10:40:00;;;;;;;1.90;0.70;;;;;;;-145.69;40.73;70455.34;5055992;28;20550;-87
2022/07/05 10:42:34;;;;;;;1.52;0.73;;;;;;;-145.69;39.21;70399.63;5055034;28;20235;-85
2022/07/05 10:45:02;;;;;;;1.83;0.70;;;;;;;-145.69;43.33;70353.88;5055154;28;20211;-86
2022/07/05 10:47:29;;;;;;;1.85;0.60;;;;;;;-145.69;38.24;70363.81;5054566;28;20196;-86
2022/07/05 10:50:05;;;;;;;1.25;0.60;;;;;;;-145.69;40.01;70407.59;5054497;28;20235;-86
2022/07/05 10:52:31;;;;;;;1.90;0.73;;;;;;;-145.69;39.15;70451.34;5054788;28;20203;-83
2022/07/05 10:55:47;;;;;;;3.53;1.08;;;;;;;-145.69;39.67;70453.34;5055168;28;20569;-87
2022/07/05 10:58:27;;;;;;;3.08;0.80;;;;;;;-145.69;40.26;70459.31;5055253;28;20210;-85
2022/07/05 11:01:45;;;;;;;2.13;0.77;;;;;;;-145.69;40.21;70387.69;5055004;28;20200;-85
2022/07/05 11:04:26;;;;;;;1.20;0.68;;;;;;;-145.69;40.06;70371.78;5055824;28;20710;-86
2022/07/05 11:06:53;;;;;;;5.22;0.80;;;;;;;-145.69;41.77;70415.53;5055078;28;20231;-84
2022/07/05 11:09:21;;;;;;;8.63;0.95;;;;;;;-145.69;40.32;70465.28;5054858;28;20200;-82
2022/07/05 11:12:04;;;;;;;3.75;1.15;;;;;;;-145.69;42.67;70505.06;5056364;28;20210;-86
2022/07/05 11:14:33;;;;;;;2.97;0.70;;;;;;;-145.69;46.46;70530.94;5055770;28;20634;-87
2022/07/05 11:17:29;;;;;;;2.63;0.80;;;;;;;-145.69;44.02;70520.97;5054349;28;20290;-88
2022/07/05 11:20:14;;;;;;;3.65;0.80;;;;;;;-145.69;42.18;70538.88;5053856;28;20849;-86
2022/07/05 11:23:00;;;;;;;6.30;1.00;;;;;;;-145.69;42.02;70538.88;5054373;28;20230;-80